createdAt,value
2022-10-18T00:00:00.680Z,57.05
2022-10-18T00:01:00.680Z,44.62
2022-10-18T00:02:00.730Z,44.26
2022-10-18T00:03:00.648Z,43.57
2022-10-18T00:04:00.638Z,51.38
2022-10-18T00:05:00.633Z,49.40
2022-10-18T00:06:00.635Z,44.04
2022-10-18T00:07:00.627Z,43.68
2022-10-18T00:08:00.653Z,43.29
2022-10-18T00:09:00.638Z,43.80
2022-10-18T00:10:00.717Z,41.78
2022-10-18T00:11:00.670Z,41.96
2022-10-18T00:12:00.637Z,41.56
2022-10-18T00:13:00.599Z,40.67
2022-10-18T00:14:00.628Z,42.09
2022-10-18T00:15:00.629Z,41.51
2022-10-18T00:16:00.599Z,40.41
2022-10-18T00:17:00.617Z,39.60
2022-10-18T00:18:00.581Z,39.23
2022-10-18T00:19:00.564Z,38.59
2022-10-18T00:20:00.544Z,37.63
2022-10-18T00:21:00.506Z,38.33
2022-10-18T00:22:00.514Z,38.70
2022-10-18T00:23:00.585Z,44.06
2022-10-18T00:24:00.522Z,55.24
2022-10-18T00:25:00.514Z,44.44
2022-10-18T00:26:00.492Z,40.81
2022-10-18T00:27:00.540Z,39.98
2022-10-18T00:28:00.461Z,39.43
2022-10-18T00:29:00.550Z,38.98
2022-10-18T00:30:00.471Z,39.14
2022-10-18T00:31:00.595Z,38.65
2022-10-18T00:32:00.472Z,40.49
2022-10-18T00:33:00.430Z,44.51
2022-10-18T00:34:00.439Z,43.82
2022-10-18T00:35:00.480Z,43.60
2022-10-18T00:36:00.408Z,42.84
2022-10-18T00:37:00.406Z,43.65
2022-10-18T00:38:00.439Z,44.87
2022-10-18T00:39:00.488Z,44.97
2022-10-18T00:40:00.455Z,44.54
2022-10-18T00:41:00.401Z,43.52
2022-10-18T00:42:05.606Z,42.76
2022-10-18T00:43:00.367Z,41.81
2022-10-18T00:44:00.359Z,40.73
2022-10-18T00:45:00.367Z,40.62
2022-10-18T00:46:00.336Z,39.44
2022-10-18T00:47:00.334Z,40.19
2022-10-18T00:48:00.320Z,40.12
2022-10-18T00:49:00.360Z,41.02
2022-10-18T00:50:00.323Z,41.82
2022-10-18T00:51:00.305Z,40.50
2022-10-18T00:52:00.301Z,39.80
2022-10-18T00:53:00.725Z,41.38
2022-10-18T00:54:00.290Z,42.58
2022-10-18T00:55:00.295Z,42.18
2022-10-18T00:56:00.549Z,41.32
2022-10-18T00:57:00.277Z,41.93
2022-10-18T00:58:00.265Z,42.61
2022-10-18T00:59:00.253Z,42.28
2022-10-18T01:00:00.281Z,42.59
2022-10-18T01:01:00.267Z,41.46
2022-10-18T01:02:00.340Z,41.82
2022-10-18T01:03:00.243Z,41.33
2022-10-18T01:04:00.221Z,41.07
2022-10-18T01:05:00.205Z,41.59
2022-10-18T01:06:00.205Z,40.96
2022-10-18T01:07:00.260Z,41.48
2022-10-18T01:08:00.198Z,40.80
2022-10-18T01:09:00.188Z,40.88
2022-10-18T01:10:00.167Z,41.96
2022-10-18T01:11:00.177Z,41.49
2022-10-18T01:12:00.197Z,41.23
2022-10-18T01:13:00.691Z,53.23
2022-10-18T01:14:00.147Z,43.07
2022-10-18T01:15:00.144Z,43.55
2022-10-18T01:16:00.201Z,46.13
2022-10-18T01:17:00.120Z,55.24
2022-10-18T01:18:00.106Z,46.38
2022-10-18T01:19:00.657Z,45.31
2022-10-18T01:20:00.125Z,45.78
2022-10-18T01:21:00.090Z,43.78
2022-10-18T01:22:00.085Z,43.73
2022-10-18T01:23:00.114Z,44.74
2022-10-18T01:24:00.088Z,42.77
2022-10-18T01:25:00.200Z,44.68
2022-10-18T01:26:00.055Z,45.74
2022-10-18T01:27:00.046Z,44.96
2022-10-18T01:28:00.079Z,44.86
2022-10-18T01:29:00.114Z,44.62
2022-10-18T01:30:00.025Z,45.35
2022-10-18T01:31:00.453Z,45.58
2022-10-18T01:32:00.014Z,45.11
2022-10-18T01:33:00.014Z,43.52
2022-10-18T01:34:00.020Z,43.19
2022-10-18T01:35:00.005Z,42.99
2022-10-18T01:35:59.995Z,42.86
2022-10-18T01:36:59.971Z,43.91
2022-10-18T01:37:59.975Z,42.83
2022-10-18T01:38:59.966Z,44.99
2022-10-18T01:40:00.334Z,46.85
2022-10-18T01:41:00.848Z,46.52
2022-10-18T01:41:59.953Z,45.34
2022-10-18T01:42:59.982Z,45.55
2022-10-18T01:44:00.001Z,46.51
2022-10-18T01:44:59.919Z,44.36
2022-10-18T01:45:59.907Z,44.78
2022-10-18T01:46:59.923Z,44.72
2022-10-18T01:47:59.904Z,49.58
2022-10-18T01:48:59.911Z,49.71
2022-10-18T01:49:59.886Z,41.23
2022-10-18T01:50:59.882Z,46.79
2022-10-18T01:51:59.975Z,47.73
2022-10-18T01:52:59.867Z,42.80
2022-10-18T01:53:59.854Z,44.80
2022-10-18T01:55:00.788Z,44.84
2022-10-18T01:55:59.852Z,43.40
2022-10-18T01:56:59.841Z,42.50
2022-10-18T01:57:59.829Z,54.28
2022-10-18T01:58:59.819Z,40.74
2022-10-18T01:59:59.846Z,39.66
2022-10-18T02:00:59.881Z,40.87
2022-10-18T02:01:59.941Z,40.88
2022-10-18T02:02:59.801Z,40.24
2022-10-18T02:03:59.782Z,39.53
2022-10-18T02:04:59.783Z,41.27
2022-10-18T02:05:59.856Z,39.23
2022-10-18T02:06:59.770Z,40.34
2022-10-18T02:08:19.024Z,40.31
2022-10-18T02:09:00.744Z,39.07
2022-10-18T02:09:59.786Z,40.66
2022-10-18T02:10:59.768Z,41.08
2022-10-18T02:11:59.775Z,41.61
2022-10-18T02:12:59.766Z,40.27
2022-10-18T02:13:59.726Z,38.42
2022-10-18T02:14:59.711Z,40.39
2022-10-18T02:15:59.750Z,38.85
2022-10-18T02:16:59.716Z,45.39
2022-10-18T02:17:59.702Z,47.95
2022-10-18T02:18:59.705Z,52.81
2022-10-18T02:19:59.691Z,49.08
2022-10-18T02:20:59.678Z,49.63
2022-10-18T02:21:59.738Z,49.64
2022-10-18T02:23:00.385Z,49.94
2022-10-18T02:23:59.699Z,49.73
2022-10-18T02:24:59.839Z,49.05
2022-10-18T02:25:59.645Z,46.92
2022-10-18T02:26:59.639Z,44.66
2022-10-18T02:27:59.636Z,54.52
2022-10-18T02:28:59.621Z,42.64
2022-10-18T02:30:00.085Z,43.61
2022-10-18T02:30:59.599Z,42.79
2022-10-18T02:31:59.614Z,42.92
2022-10-18T02:32:59.594Z,42.51
2022-10-18T02:33:59.580Z,42.79
2022-10-18T02:34:59.569Z,43.30
2022-10-18T02:35:59.608Z,41.27
2022-10-18T02:36:59.588Z,40.63
2022-10-18T02:37:59.556Z,47.41
2022-10-18T02:38:59.550Z,49.86
2022-10-18T02:39:59.542Z,44.07
2022-10-18T02:40:59.552Z,52.80
2022-10-18T02:41:59.530Z,42.41
2022-10-18T02:42:59.511Z,52.94
2022-10-18T02:43:59.515Z,41.52
2022-10-18T02:44:59.510Z,42.06
2022-10-18T02:45:59.494Z,41.71
2022-10-18T02:46:59.509Z,41.44
2022-10-18T02:47:59.509Z,41.43
2022-10-18T02:48:59.475Z,40.23
2022-10-18T02:50:00.906Z,41.54
2022-10-18T02:50:59.477Z,54.56
2022-10-18T02:51:59.452Z,40.27
2022-10-18T02:52:59.453Z,46.47
2022-10-18T02:53:59.441Z,44.20
2022-10-18T02:55:00.393Z,39.19
2022-10-18T02:55:59.433Z,43.45
2022-10-18T02:56:59.414Z,50.50
2022-10-18T02:57:59.421Z,41.00
2022-10-18T02:58:59.415Z,39.60
2022-10-18T02:59:59.413Z,38.60
2022-10-18T03:00:59.409Z,39.19
2022-10-18T03:01:59.409Z,39.04
2022-10-18T03:02:59.382Z,39.49
2022-10-18T03:03:59.396Z,40.21
2022-10-18T03:04:59.376Z,40.51
2022-10-18T03:05:59.366Z,40.01
2022-10-18T03:06:59.370Z,39.62
2022-10-18T03:07:59.350Z,40.13
2022-10-18T03:08:59.335Z,40.51
2022-10-18T03:09:59.338Z,40.91
2022-10-18T03:10:59.343Z,42.12
2022-10-18T03:11:59.394Z,43.12
2022-10-18T03:12:59.323Z,39.51
2022-10-18T03:13:59.310Z,39.33
2022-10-18T03:14:59.301Z,39.26
2022-10-18T03:15:59.316Z,37.46
2022-10-18T03:16:59.298Z,37.65
2022-10-18T03:17:59.282Z,38.83
2022-10-18T03:18:59.279Z,39.71
2022-10-18T03:19:59.311Z,38.27
2022-10-18T03:20:59.261Z,42.96
2022-10-18T03:21:59.313Z,40.59
2022-10-18T03:22:59.331Z,37.76
2022-10-18T03:23:59.257Z,38.26
2022-10-18T03:24:59.673Z,39.01
2022-10-18T03:25:59.237Z,38.42
2022-10-18T03:26:59.227Z,47.45
2022-10-18T03:27:59.232Z,48.21
2022-10-18T03:28:59.248Z,39.65
2022-10-18T03:29:59.208Z,39.57
2022-10-18T03:30:59.202Z,39.45
2022-10-18T03:31:59.195Z,52.50
2022-10-18T03:32:59.201Z,38.92
2022-10-18T03:33:59.182Z,37.66
2022-10-18T03:34:59.170Z,39.07
2022-10-18T03:35:59.191Z,55.37
2022-10-18T03:37:02.093Z,40.37
2022-10-18T03:38:00.924Z,37.67
2022-10-18T03:38:59.147Z,38.28
2022-10-18T03:39:59.130Z,38.37
2022-10-18T03:40:59.133Z,37.75
2022-10-18T03:41:59.138Z,39.10
2022-10-18T03:42:59.109Z,37.98
2022-10-18T03:43:59.113Z,38.05
2022-10-18T03:44:59.103Z,38.55
2022-10-18T03:45:59.090Z,42.26
2022-10-18T03:46:59.089Z,43.52
2022-10-18T03:47:59.099Z,43.29
2022-10-18T03:48:59.104Z,43.42
2022-10-18T03:49:59.063Z,45.47
2022-10-18T03:50:59.062Z,46.96
2022-10-18T03:51:59.078Z,46.70
2022-10-18T03:52:59.042Z,46.27
2022-10-18T03:53:59.039Z,45.71
2022-10-18T03:54:59.056Z,44.44
2022-10-18T03:55:59.037Z,43.73
2022-10-18T03:56:59.023Z,43.52
2022-10-18T03:57:59.006Z,42.90
2022-10-18T03:58:59.006Z,43.80
2022-10-18T03:59:59.013Z,55.80
2022-10-18T04:00:58.981Z,55.95
2022-10-18T04:01:59.066Z,56.39
2022-10-18T04:02:58.984Z,55.88
2022-10-18T04:03:58.961Z,55.39
2022-10-18T04:04:58.957Z,55.42
2022-10-18T04:05:59.656Z,55.84
2022-10-18T04:06:59.469Z,56.20
2022-10-18T04:07:59.002Z,57.24
2022-10-18T04:08:58.939Z,57.79
2022-10-18T04:09:58.923Z,58.98
2022-10-18T04:10:58.913Z,59.38
2022-10-18T04:11:58.915Z,60.33
2022-10-18T04:12:58.916Z,59.91
2022-10-18T04:13:58.936Z,60.37
2022-10-18T04:14:58.890Z,59.73
2022-10-18T04:15:58.897Z,59.29
2022-10-18T04:16:58.883Z,59.74
2022-10-18T04:17:58.886Z,59.85
2022-10-18T04:18:58.863Z,59.09
2022-10-18T04:19:58.856Z,59.48
2022-10-18T04:20:58.842Z,60.68
2022-10-18T04:21:58.843Z,58.79
2022-10-18T04:22:58.844Z,58.17
2022-10-18T04:23:59.594Z,56.79
2022-10-18T04:24:58.816Z,54.62
2022-10-18T04:25:58.805Z,54.24
2022-10-18T04:26:58.805Z,52.01
2022-10-18T04:27:58.806Z,55.87
2022-10-18T04:28:58.871Z,55.09
2022-10-18T04:29:58.798Z,48.89
2022-10-18T04:30:58.784Z,50.40
2022-10-18T04:32:06.490Z,48.41
2022-10-18T04:32:58.757Z,48.72
2022-10-18T04:33:58.768Z,49.36
2022-10-18T04:34:59.176Z,49.89
2022-10-18T04:35:58.734Z,50.60
2022-10-18T04:36:58.733Z,52.35
2022-10-18T04:37:58.729Z,54.15
2022-10-18T04:38:58.716Z,55.54
2022-10-18T04:39:58.987Z,56.44
2022-10-18T04:40:58.704Z,57.20
2022-10-18T04:41:58.689Z,58.08
2022-10-18T04:42:58.690Z,59.14
2022-10-18T04:43:58.679Z,59.60
2022-10-18T04:44:58.675Z,59.46
2022-10-18T04:45:58.686Z,59.34
2022-10-18T04:46:58.659Z,59.43
2022-10-18T04:47:58.656Z,59.24
2022-10-18T04:48:58.652Z,59.00
2022-10-18T04:49:58.631Z,60.23
2022-10-18T04:50:58.645Z,59.41
2022-10-18T04:51:58.642Z,59.35
2022-10-18T04:52:58.623Z,59.95
2022-10-18T04:53:58.612Z,59.77
2022-10-18T04:54:58.608Z,59.57
2022-10-18T04:55:58.668Z,59.24
2022-10-18T04:56:58.605Z,58.86
2022-10-18T04:57:58.586Z,58.12
2022-10-18T04:58:58.577Z,58.08
2022-10-18T04:59:58.573Z,58.29
2022-10-18T05:00:58.576Z,57.82
2022-10-18T05:01:58.730Z,58.18
2022-10-18T05:02:58.580Z,57.75
2022-10-18T05:03:58.541Z,57.66
2022-10-18T05:04:58.533Z,57.84
2022-10-18T05:06:02.997Z,57.69
2022-10-18T05:06:58.534Z,58.18
2022-10-18T05:07:58.511Z,57.78
2022-10-18T05:08:58.518Z,57.82
2022-10-18T05:09:58.507Z,57.86
2022-10-18T05:10:58.575Z,56.28
2022-10-18T05:11:58.535Z,58.07
2022-10-18T05:12:58.485Z,57.55
2022-10-18T05:13:58.470Z,56.98
2022-10-18T05:14:58.491Z,56.13
2022-10-18T05:15:58.458Z,55.95
2022-10-18T05:16:58.453Z,56.29
2022-10-18T05:17:58.882Z,56.63
2022-10-18T05:18:58.437Z,56.19
2022-10-18T05:19:58.456Z,58.10
2022-10-18T05:20:58.429Z,58.45
2022-10-18T05:21:58.412Z,58.32
2022-10-18T05:22:58.414Z,58.08
2022-10-18T05:23:58.718Z,57.90
2022-10-18T05:24:58.394Z,58.88
2022-10-18T05:25:58.405Z,58.68
2022-10-18T05:26:58.384Z,61.73
2022-10-18T05:28:00.926Z,62.69
2022-10-18T05:28:58.512Z,60.06
2022-10-18T05:30:01.390Z,58.48
2022-10-18T05:30:59.370Z,61.57
2022-10-18T05:31:58.344Z,61.87
2022-10-18T05:32:58.348Z,61.27
2022-10-18T05:33:58.332Z,61.02
2022-10-18T05:34:58.322Z,61.77
2022-10-18T05:35:58.336Z,64.18
2022-10-18T05:36:58.314Z,62.90
2022-10-18T05:37:58.297Z,62.13
2022-10-18T05:39:01.013Z,61.70
2022-10-18T05:39:59.318Z,63.40
2022-10-18T05:40:58.284Z,62.77
2022-10-18T05:41:58.271Z,60.80
2022-10-18T05:42:58.269Z,58.83
2022-10-18T05:43:58.718Z,59.80
2022-10-18T05:44:58.330Z,57.90
2022-10-18T05:45:58.250Z,55.28
2022-10-18T05:46:58.963Z,55.53
2022-10-18T05:47:58.241Z,55.79
2022-10-18T05:48:58.232Z,57.56
2022-10-18T05:49:58.230Z,54.74
2022-10-18T05:50:58.249Z,54.26
2022-10-18T05:51:58.209Z,52.40
2022-10-18T05:53:06.909Z,52.70
2022-10-18T05:53:59.616Z,53.05
2022-10-18T05:54:59.534Z,53.78
2022-10-18T05:55:58.172Z,53.98
2022-10-18T05:56:58.821Z,56.81
2022-10-18T05:57:58.167Z,55.40
2022-10-18T05:58:58.156Z,57.44
2022-10-18T05:59:59.273Z,56.96
2022-10-18T06:00:58.149Z,57.35
2022-10-18T06:01:58.134Z,57.98
2022-10-18T06:03:00.276Z,58.19
2022-10-18T06:03:58.120Z,58.38
2022-10-18T06:04:58.115Z,58.33
2022-10-18T06:05:58.128Z,58.77
2022-10-18T06:06:58.532Z,59.86
2022-10-18T06:07:58.098Z,60.71
2022-10-18T06:08:58.093Z,60.84
2022-10-18T06:09:58.075Z,58.67
2022-10-18T06:10:58.071Z,58.42
2022-10-18T06:11:59.144Z,58.87
2022-10-18T06:12:58.065Z,60.69
2022-10-18T06:13:58.047Z,59.93
2022-10-18T06:14:58.085Z,58.92
2022-10-18T06:15:59.226Z,62.33
2022-10-18T06:16:58.459Z,61.70
2022-10-18T06:17:58.025Z,62.61
2022-10-18T06:18:58.010Z,61.09
2022-10-18T06:19:58.009Z,62.22
2022-10-18T06:20:58.031Z,63.18
2022-10-18T06:21:58.007Z,66.33
2022-10-18T06:22:57.992Z,60.92
2022-10-18T06:23:57.974Z,61.95
2022-10-18T06:24:57.983Z,62.39
2022-10-18T06:25:57.967Z,62.01
2022-10-18T06:26:58.221Z,61.33
2022-10-18T06:27:59.262Z,61.30
2022-10-18T06:28:58.001Z,62.10
2022-10-18T06:29:57.981Z,62.47
2022-10-18T06:30:57.929Z,61.89
2022-10-18T06:31:57.938Z,59.90
2022-10-18T06:32:57.927Z,61.17
2022-10-18T06:33:57.910Z,59.09
2022-10-18T06:34:57.919Z,61.41
2022-10-18T06:35:57.897Z,60.82
2022-10-18T06:36:58.817Z,62.28
2022-10-18T06:37:57.933Z,62.52
2022-10-18T06:38:57.891Z,62.43
2022-10-18T06:39:57.861Z,62.31
2022-10-18T06:40:57.857Z,61.70
2022-10-18T06:41:57.853Z,62.03
2022-10-18T06:43:05.876Z,62.61
2022-10-18T06:43:59.303Z,61.56
2022-10-18T06:44:57.834Z,61.08
2022-10-18T06:45:57.850Z,61.52
2022-10-18T06:46:57.824Z,62.24
2022-10-18T06:47:57.832Z,59.23
2022-10-18T06:48:57.805Z,58.99
2022-10-18T06:49:57.792Z,60.08
2022-10-18T06:50:58.479Z,58.36
2022-10-18T06:51:57.772Z,59.00
2022-10-18T06:52:57.767Z,58.06
2022-10-18T06:54:16.342Z,55.80
2022-10-18T06:54:58.753Z,55.67
2022-10-18T06:55:58.188Z,60.87
2022-10-18T06:56:57.745Z,69.54
2022-10-18T06:57:57.726Z,68.57
2022-10-18T06:59:57.720Z,72.65
2022-10-18T07:00:57.715Z,61.48
2022-10-18T07:01:57.770Z,59.79
2022-10-18T07:02:57.699Z,60.20
2022-10-18T07:03:57.705Z,59.94
2022-10-18T07:04:57.687Z,59.98
2022-10-18T07:05:57.675Z,60.07
2022-10-18T07:06:57.681Z,60.14
2022-10-18T07:07:57.660Z,60.28
2022-10-18T07:08:57.660Z,60.07
2022-10-18T07:09:57.642Z,59.98
2022-10-18T07:10:57.643Z,60.92
2022-10-18T07:11:57.626Z,60.52
2022-10-18T07:13:13.722Z,60.10
2022-10-18T07:13:58.618Z,60.71
2022-10-18T07:14:57.628Z,60.68
2022-10-18T07:15:57.609Z,60.71
2022-10-18T07:16:57.593Z,61.19
2022-10-18T07:17:57.591Z,60.57
2022-10-18T07:18:57.588Z,60.44
2022-10-18T07:19:57.597Z,61.40
2022-10-18T07:20:57.572Z,59.14
2022-10-18T07:21:57.553Z,54.72
2022-10-18T07:22:57.554Z,54.83
2022-10-18T07:24:00.865Z,53.19
2022-10-18T07:24:57.537Z,53.42
2022-10-18T07:25:57.535Z,48.35
2022-10-18T07:26:57.549Z,49.96
2022-10-18T07:27:57.521Z,50.83
2022-10-18T07:28:57.569Z,50.73
2022-10-18T07:29:57.499Z,51.12
2022-10-18T07:31:01.296Z,64.40
2022-10-18T07:31:58.502Z,72.01
2022-10-18T07:32:57.488Z,74.85
2022-10-18T07:33:57.473Z,51.78
2022-10-18T07:34:57.538Z,42.91
2022-10-18T07:35:57.491Z,42.93
2022-10-18T07:36:57.462Z,42.26
2022-10-18T07:37:57.455Z,40.87
2022-10-18T07:38:57.458Z,41.78
2022-10-18T07:39:57.438Z,44.01
2022-10-18T07:40:57.433Z,46.84
2022-10-18T07:41:57.430Z,42.21
2022-10-18T07:42:57.422Z,44.26
2022-10-18T07:43:57.411Z,43.42
2022-10-18T07:44:57.397Z,44.16
2022-10-18T07:45:57.396Z,45.15
2022-10-18T07:46:57.409Z,44.79
2022-10-18T07:47:57.386Z,45.82
2022-10-18T07:48:57.374Z,46.06
2022-10-18T07:49:57.380Z,45.26
2022-10-18T07:50:57.358Z,44.26
2022-10-18T07:51:57.387Z,42.92
2022-10-18T07:52:57.366Z,45.49
2022-10-18T07:53:57.351Z,41.82
2022-10-18T07:54:57.345Z,41.46
2022-10-18T07:55:57.329Z,40.81
2022-10-18T07:56:57.347Z,40.64
2022-10-18T07:57:57.313Z,41.72
2022-10-18T07:58:57.311Z,49.28
2022-10-18T07:59:57.297Z,40.41
2022-10-18T08:00:57.295Z,41.57
2022-10-18T08:01:57.375Z,45.77
2022-10-18T08:02:57.298Z,51.50
2022-10-18T08:03:57.278Z,44.21
2022-10-18T08:04:57.265Z,41.80
2022-10-18T08:05:57.279Z,44.61
2022-10-18T08:06:57.257Z,43.73
2022-10-18T08:07:57.265Z,46.51
2022-10-18T08:08:57.227Z,46.88
2022-10-18T08:09:57.227Z,46.52
2022-10-18T08:10:57.230Z,45.60
2022-10-18T08:11:57.449Z,44.89
2022-10-18T08:12:57.211Z,44.39
2022-10-18T08:13:57.195Z,43.90
2022-10-18T08:14:57.197Z,44.09
2022-10-18T08:15:57.199Z,45.38
2022-10-18T08:16:57.179Z,44.70
2022-10-18T08:17:57.182Z,45.71
2022-10-18T08:18:57.188Z,45.86
2022-10-18T08:20:11.867Z,46.61
2022-10-18T08:20:58.675Z,49.87
2022-10-18T08:21:57.146Z,46.46
2022-10-18T08:23:00.164Z,44.73
2022-10-18T08:23:57.160Z,46.42
2022-10-18T08:24:57.128Z,43.74
2022-10-18T08:25:57.123Z,44.73
2022-10-18T08:26:57.113Z,45.46
2022-10-18T08:27:57.137Z,48.13
2022-10-18T08:29:10.662Z,48.22
2022-10-18T08:29:58.125Z,47.72
2022-10-18T08:30:57.085Z,44.01
2022-10-18T08:31:57.064Z,43.59
2022-10-18T08:32:57.068Z,42.25
2022-10-18T08:33:57.562Z,42.40
2022-10-18T08:34:57.054Z,46.21
2022-10-18T08:35:57.058Z,44.31
2022-10-18T08:36:57.035Z,42.09
2022-10-18T08:37:57.032Z,41.61
2022-10-18T08:38:57.019Z,41.27
2022-10-18T08:39:57.046Z,54.42
2022-10-18T08:40:57.010Z,41.65
2022-10-18T08:41:57.024Z,47.69
2022-10-18T08:42:56.995Z,41.33
2022-10-18T08:43:56.986Z,47.30
2022-10-18T08:44:56.976Z,40.90
2022-10-18T08:45:56.972Z,47.36
2022-10-18T08:46:57.057Z,41.09
2022-10-18T08:47:56.951Z,40.12
2022-10-18T08:48:56.957Z,40.15
2022-10-18T08:49:56.950Z,65.51
2022-10-18T08:50:57.122Z,49.26
2022-10-18T08:51:56.923Z,40.33
2022-10-18T08:52:56.927Z,40.27
2022-10-18T08:53:56.910Z,40.45
2022-10-18T08:54:56.915Z,44.23
2022-10-18T08:55:56.931Z,50.25
2022-10-18T08:56:57.321Z,41.61
2022-10-18T08:57:56.891Z,43.05
2022-10-18T08:58:56.876Z,44.73
2022-10-18T08:59:56.866Z,44.83
2022-10-18T09:00:57.154Z,44.71
2022-10-18T09:01:56.869Z,44.72
2022-10-18T09:02:56.911Z,47.55
2022-10-18T09:03:56.849Z,53.30
2022-10-18T09:04:56.837Z,46.51
2022-10-18T09:05:56.825Z,44.11
2022-10-18T09:06:56.842Z,42.59
2022-10-18T09:07:56.817Z,41.79
2022-10-18T09:08:56.804Z,41.05
2022-10-18T09:09:56.806Z,41.22
2022-10-18T09:11:59.513Z,39.69
2022-10-18T09:12:58.230Z,40.31
2022-10-18T09:13:56.771Z,41.09
2022-10-18T09:14:56.772Z,40.41
2022-10-18T09:15:56.764Z,40.42
2022-10-18T09:16:56.749Z,40.79
2022-10-18T09:17:56.758Z,40.21
2022-10-18T09:18:57.693Z,40.41
2022-10-18T09:19:56.759Z,39.54
2022-10-18T09:20:56.733Z,40.37
2022-10-18T09:21:56.720Z,45.77
2022-10-18T09:22:56.707Z,46.15
2022-10-18T09:23:56.695Z,46.27
2022-10-18T09:24:57.794Z,41.85
2022-10-18T09:25:56.686Z,40.90
2022-10-18T09:26:56.705Z,42.29
2022-10-18T09:27:56.701Z,40.24
2022-10-18T09:28:56.810Z,39.73
2022-10-18T09:29:56.663Z,45.06
2022-10-18T09:30:58.788Z,40.94
2022-10-18T09:31:56.647Z,38.66
2022-10-18T09:32:56.644Z,38.10
2022-10-18T09:33:56.630Z,37.87
2022-10-18T09:34:56.627Z,42.07
2022-10-18T09:35:56.618Z,37.30
2022-10-18T09:36:57.332Z,38.02
2022-10-18T09:37:56.604Z,38.02
2022-10-18T09:38:59.893Z,37.09
2022-10-18T09:39:56.585Z,37.92
2022-10-18T09:40:56.588Z,38.41
2022-10-18T09:41:56.567Z,46.04
2022-10-18T09:42:56.716Z,39.16
2022-10-18T09:43:56.585Z,40.36
2022-10-18T09:44:56.550Z,37.11
2022-10-18T09:45:56.548Z,36.44
2022-10-18T09:46:56.552Z,38.01
2022-10-18T09:47:56.547Z,36.91
2022-10-18T09:48:56.528Z,35.68
2022-10-18T09:49:56.514Z,36.78
2022-10-18T09:50:56.545Z,35.95
2022-10-18T09:51:56.505Z,36.09
2022-10-18T09:52:57.337Z,40.98
2022-10-18T09:53:56.486Z,35.94
2022-10-18T09:54:56.488Z,36.56
2022-10-18T09:55:56.478Z,35.78
2022-10-18T09:57:56.466Z,35.81
2022-10-18T09:58:56.882Z,35.54
2022-10-18T09:59:56.472Z,35.90
2022-10-18T10:00:56.447Z,38.31
2022-10-18T10:01:56.429Z,38.88
2022-10-18T10:02:56.432Z,39.77
2022-10-18T10:03:56.421Z,40.07
2022-10-18T10:04:56.452Z,38.88
2022-10-18T10:05:56.414Z,35.56
2022-10-18T10:06:56.402Z,43.33
2022-10-18T10:07:56.389Z,39.37
2022-10-18T10:08:56.390Z,44.62
2022-10-18T10:09:56.397Z,36.79
2022-10-18T10:10:56.388Z,37.75
2022-10-18T10:11:56.379Z,37.04
2022-10-18T10:12:56.567Z,38.19
2022-10-18T10:13:56.345Z,36.78
2022-10-18T10:14:56.350Z,36.76
2022-10-18T10:15:56.442Z,36.33
2022-10-18T10:16:56.335Z,36.73
2022-10-18T10:17:56.329Z,41.29
2022-10-18T10:18:57.556Z,45.06
2022-10-18T10:19:56.306Z,41.27
2022-10-18T10:20:56.307Z,51.12
2022-10-18T10:21:56.292Z,51.86
2022-10-18T10:22:56.296Z,43.11
2022-10-18T10:23:56.291Z,41.13
2022-10-18T10:24:56.299Z,41.13
2022-10-18T10:25:56.261Z,41.99
2022-10-18T10:26:56.266Z,41.17
2022-10-18T10:27:56.262Z,41.07
2022-10-18T10:28:56.365Z,42.46
2022-10-18T10:29:56.248Z,44.63
2022-10-18T10:30:56.420Z,43.58
2022-10-18T10:31:56.250Z,43.45
2022-10-18T10:33:03.261Z,43.67
2022-10-18T10:33:56.213Z,44.08
2022-10-18T10:34:56.210Z,43.69
2022-10-18T10:35:56.196Z,42.68
2022-10-18T10:36:56.352Z,42.91
2022-10-18T10:37:56.212Z,43.60
2022-10-18T10:38:56.178Z,40.88
2022-10-18T10:40:17.356Z,40.98
2022-10-18T10:40:57.195Z,45.48
2022-10-18T10:41:56.163Z,47.26
2022-10-18T10:43:04.272Z,44.52
2022-10-18T10:43:57.149Z,45.08
2022-10-18T10:44:56.326Z,52.73
2022-10-18T10:45:56.146Z,55.88
2022-10-18T10:46:56.182Z,37.46
2022-10-18T10:47:56.202Z,39.24
2022-10-18T10:49:15.455Z,37.30
2022-10-18T10:49:57.122Z,36.73
2022-10-18T10:50:56.104Z,48.43
2022-10-18T10:52:08.218Z,37.30
2022-10-18T10:52:57.111Z,42.12
2022-10-18T10:53:56.104Z,37.94
2022-10-18T10:55:05.812Z,40.18
2022-10-18T10:55:57.084Z,48.98
2022-10-18T10:56:56.074Z,48.21
2022-10-18T10:57:56.060Z,37.57
2022-10-18T10:58:56.139Z,40.56
2022-10-18T10:59:56.045Z,39.37
2022-10-18T11:00:56.035Z,36.79
2022-10-18T11:01:56.040Z,37.45
2022-10-18T11:03:05.313Z,45.20
2022-10-18T11:03:57.096Z,39.38
2022-10-18T11:04:56.159Z,36.62
2022-10-18T11:05:56.007Z,36.69
2022-10-18T11:06:55.998Z,40.83
2022-10-18T11:07:56.018Z,37.38
2022-10-18T11:08:55.982Z,38.56
2022-10-18T11:09:55.997Z,36.42
2022-10-18T11:10:56.024Z,38.89
2022-10-18T11:11:55.955Z,37.83
2022-10-18T11:12:55.957Z,37.59
2022-10-18T11:14:07.390Z,36.08
2022-10-18T11:14:56.949Z,36.23
2022-10-18T11:15:55.932Z,42.99
2022-10-18T11:16:55.909Z,38.71
2022-10-18T11:17:55.947Z,43.53
2022-10-18T11:18:55.913Z,37.90
2022-10-18T11:19:55.953Z,37.48
2022-10-18T11:20:55.942Z,46.37
2022-10-18T11:21:56.611Z,38.42
2022-10-18T11:22:55.909Z,36.26
2022-10-18T11:23:55.866Z,37.95
2022-10-18T11:24:55.874Z,41.61
2022-10-18T11:25:55.883Z,43.23
2022-10-18T11:26:55.854Z,38.11
2022-10-18T11:27:55.849Z,38.95
2022-10-18T11:28:55.927Z,38.40
2022-10-18T11:29:55.828Z,38.85
2022-10-18T11:30:55.855Z,38.78
2022-10-18T11:31:55.817Z,38.10
2022-10-18T11:32:55.828Z,43.14
2022-10-18T11:34:08.753Z,43.81
2022-10-18T11:34:56.836Z,39.64
2022-10-18T11:35:58.190Z,38.79
2022-10-18T11:37:22.583Z,41.68
2022-10-18T11:37:56.770Z,43.07
2022-10-18T11:38:55.759Z,43.18
2022-10-18T11:39:55.788Z,41.69
2022-10-18T11:40:55.750Z,42.20
2022-10-18T11:41:55.763Z,41.94
2022-10-18T11:42:56.054Z,42.92
2022-10-18T11:44:03.895Z,39.50
2022-10-18T11:44:57.012Z,37.83
2022-10-18T11:45:55.716Z,39.95
2022-10-18T11:46:55.711Z,38.15
2022-10-18T11:47:56.031Z,38.83
2022-10-18T11:48:55.696Z,38.01
2022-10-18T11:49:55.741Z,38.61
2022-10-18T11:50:55.743Z,39.26
2022-10-18T11:52:07.943Z,39.15
2022-10-18T11:52:56.694Z,42.07
2022-10-18T11:53:56.128Z,38.42
2022-10-18T11:54:55.664Z,38.33
2022-10-18T11:55:55.644Z,36.83
2022-10-18T11:56:55.645Z,38.36
2022-10-18T11:57:55.649Z,39.54
2022-10-18T11:58:55.647Z,37.48
2022-10-18T11:59:55.641Z,37.00
2022-10-18T12:00:55.666Z,37.67
2022-10-18T12:01:55.610Z,39.54
2022-10-18T12:02:55.724Z,38.23
2022-10-18T12:03:55.626Z,38.31
2022-10-18T12:05:18.879Z,39.84
2022-10-18T12:05:56.594Z,38.15
2022-10-18T12:06:55.576Z,37.38
2022-10-18T12:07:55.580Z,36.15
2022-10-18T12:08:55.585Z,42.02
2022-10-18T12:09:55.597Z,37.82
2022-10-18T12:11:06.893Z,40.05
2022-10-18T12:11:56.553Z,42.71
2022-10-18T12:12:55.547Z,39.23
2022-10-18T12:13:55.561Z,39.23
2022-10-18T12:14:55.515Z,41.65
2022-10-18T12:15:55.515Z,38.97
2022-10-18T12:17:13.502Z,37.36
2022-10-18T12:17:56.830Z,39.68
2022-10-18T12:18:55.551Z,38.28
2022-10-18T12:19:55.478Z,37.45
2022-10-18T12:20:55.467Z,38.41
2022-10-18T12:21:55.494Z,39.01
2022-10-18T12:22:55.455Z,39.23
2022-10-18T12:23:55.479Z,38.97
2022-10-18T12:24:55.446Z,38.63
2022-10-18T12:25:55.445Z,39.22
2022-10-18T12:26:55.438Z,43.77
2022-10-18T12:27:55.485Z,41.69
2022-10-18T12:28:55.449Z,41.12
2022-10-18T12:29:55.488Z,41.24
2022-10-18T12:30:55.481Z,41.09
2022-10-18T12:31:55.430Z,40.23
2022-10-18T12:33:03.460Z,38.07
2022-10-18T12:33:56.410Z,37.74
2022-10-18T12:34:55.389Z,38.25
2022-10-18T12:35:55.394Z,39.44
2022-10-18T12:36:55.466Z,39.94
2022-10-18T12:37:55.339Z,39.40
2022-10-18T12:38:55.374Z,39.13
2022-10-18T12:40:13.219Z,38.88
2022-10-18T12:40:56.317Z,40.69
2022-10-18T12:41:55.319Z,47.57
2022-10-18T12:42:55.525Z,39.86
2022-10-18T12:43:55.320Z,38.94
2022-10-18T12:44:55.319Z,42.38
2022-10-18T12:45:55.298Z,41.75
2022-10-18T12:46:55.288Z,48.38
2022-10-18T12:47:55.284Z,40.08
2022-10-18T12:48:55.276Z,40.94
2022-10-18T12:49:55.289Z,39.80
2022-10-18T12:50:55.273Z,39.51
2022-10-18T12:51:55.674Z,40.55
2022-10-18T12:52:55.267Z,45.55
2022-10-18T12:53:55.245Z,40.34
2022-10-18T12:54:55.230Z,42.02